Woodbury, CT (06798)

3:19 PM EDT on August 03, 2015 (GMT -0400)
Woodbury CT. | | Change Station
CLOSE
Current Station
Personal Weather Station
Location: Woodbury, CT
Elevation: 322 ft
Nearby Weather Stations

Elev 322 ft 41.56 °N, 73.20 °W | Updated 4 seconds ago

Clear
Clear
87.8 °F
Feels Like 91 °F
N
2.5
Wind Variable Wind from NW
Gusts 3.6 mph

Today
High -- | Low -- °F
--% Chance of Precip.
Yesterday
High -- | Low -- °F
Precip. -- in
5:49 AM 8:08 PM
Waning Gibbous, 84% visible
Pressure 29.84 in
Visibility 10.0 miles
Clouds Few 5500 ft
Heat Index 91 °F
Dew Point 67 °F
Humidity 50%
Rainfall 0.00 in
Snow Depth Not available.
UV 1.0 out of 12
Pollen 7.60 out of 12
Air Quality Not available.
Flu Activity Not available.
METAR KOXC 031850Z 22008G18KT 180V260 10SM FEW055 29/17 A2984

More Conditions Fewer Conditions

Pressure 29.84 in
Visibility 10.0 miles
Clouds Few 5500 ft
Heat Index 91 °F
Dew Point 67 °F
Humidity 50%
Rainfall 0.00 in
Snow Depth Not available.
UV 1.0 out of 12
Pollen 7.60 out of 12
Air Quality Not available.
Flu Activity Not available.
METAR KOXC 031850Z 22008G18KT 180V260 10SM FEW055 29/17 A2984

More Conditions Fewer Conditions

10-Day Weather Forecast

×

Almanac

Astronomy

Aug. 03, 2015 Rise Set
Actual Time
Civil Twilight
Nautical Twilight
Astronomical Twilight
Moon
Length of Visible Light
Length of Day
Tomorrow will be .
, % of the Moon is Illuminated

Today's Extremes

State Highs State Lows

Community

WunderPhotos

Upload Photos

1,843,707 photos uploaded!

WunderBlogs® & News

Nearby

Air Quality

  Air Quality AQ Index Pollutant
Not available.

Snow Depth

Station Depth Elevation

Earthquake Activity

City Distance Mag. Time & Date
Minimum magnitude displayed is 2.5.

Coastal Water Temperatures

Place Temperature

Stations

Nearby Weather Stations

Station Location Temp. Windchill Dew Point Humidity Wind Precip. Elev Updated Type